All
Marpuru Airport YMAP Weather
There is no TAF data available at YMAP. Showing TAF data for YELD (19 mi NE).
ELC Terminal Area Forecast (no data for YMAP)
| Date | Time (ACST) | Flight Rules | Wind Dir. | Speed | Type | Height AGL (ft) | Visibility | Remarks | ||||||
|---|---|---|---|---|---|---|---|---|---|---|---|---|---|---|
| 05-May | 07:30PM | VFR | 120° | 10 kt | Scattered | 4,000 | >= 6 miles | |||||||
| 05-May | 06:30PM | VFR | 120° | 10 kt | Scattered | 4,000 | >= 6 miles | |||||||
| 05-May | 05:30PM | VFR | 120° | 10 kt | Scattered | 4,000 | >= 6 miles | |||||||
| 05-May | 04:30PM | VFR | 120° | 10 kt | Scattered | 4,000 | >= 6 miles | |||||||
| 05-May | 03:30PM | VFR | 120° | 10 kt | Scattered | 4,000 | >= 6 miles | |||||||
| 05-May | 02:30PM | VFR | 120° | 10 kt | Scattered | 4,000 | >= 6 miles | |||||||
There is no METAR data available at YMAP. Showing METAR data for YELD (19 mi NE).
Recent ELC METAR history (no data for YMAP)
| Date | Time (ACST) | Flight Rules | Wind Dir. | Speed | Type | Height AGL (ft) | Visibility | Temp (°C) | Temp (°F) | Dew Point (°C) | Dew Point (°F) | Rel. Humid. | Pressure | Density Altitude | Remarks |
|---|---|---|---|---|---|---|---|---|---|---|---|---|---|---|---|
| 05-May | 02:30PM | n/a | 130° | 9 kt | Missing | 31° | 87° | 22° | 71° | 59% | 1009 mb | 2,145 ft | |||
| 05-May | 01:30PM | n/a | 110° | 10 kt | Missing | 31° | 87° | 23° | 73° | 63% | 1010 mb | 2,116 ft | |||
| 05-May | 12:30PM | n/a | 130° | 10 kt | Missing | 31° | 87° | 23° | 73° | 63% | 1011 mb | 2,086 ft | |||
| 05-May | 11:30AM | n/a | 120° | 11 kt | Missing | 30° | 86° | 24° | 75° | 70% | 1011 mb | 1,966 ft | |||
| 05-May | 10:30AM | n/a | 130° | 9 kt | Missing | 30° | 86° | 24° | 75° | 70% | 1012 mb | 1,937 ft | |||
| 05-May | 09:30AM | n/a | 150° | 9 kt | Missing | 28° | 82° | 25° | 77° | 84% | 1013 mb | 1,667 ft | |||
| 05-May | 08:30AM | n/a | 140° | 7 kt | Missing | 26° | 78° | 25° | 77° | 94% | 1012 mb | 1,457 ft | |||
| 05-May | 07:30AM | n/a | 170° | 7 kt | Missing | 25° | 77° | 25° | 77° | 100% | 1012 mb | 1,337 ft | |||
| 05-May | 06:30AM | n/a | 140° | 4 kt | Missing | 24° | 75° | 24° | 75° | 100% | 1011 mb | 1,246 ft | |||
| 05-May | 05:30AM | n/a | 120° | 4 kt | Missing | 24° | 75° | 24° | 75° | 100% | 1010 mb | 1,276 ft | |||
| 05-May | 04:30AM | n/a | 140° | 5 kt | Missing | 24° | 75° | 24° | 75° | 100% | 1010 mb | 1,276 ft | |||
| 05-May | 03:30AM | n/a | 160° | 5 kt | Missing | 24° | 75° | 24° | 75° | 100% | 1011 mb | 1,246 ft | |||
| 05-May | 02:30AM | n/a | 150° | 5 kt | Missing | 24° | 75° | 24° | 75° | 100% | 1011 mb | 1,246 ft | |||
| 05-May | 01:30AM | n/a | 120° | 5 kt | Missing | 25° | 77° | 24° | 75° | 94% | 1011 mb | 1,366 ft | |||
| 05-May | 12:30AM | n/a | 120° | 5 kt | Missing | 25° | 77° | 24° | 75° | 94% | 1011 mb | 1,366 ft | |||
| 04-May | 11:30PM | n/a | 130° | 5 kt | Missing | 25° | 77° | 24° | 75° | 94% | 1012 mb | 1,337 ft | |||
| 04-May | 10:30PM | n/a | 140° | 4 kt | Missing | 26° | 78° | 24° | 75° | 89% | 1012 mb | 1,457 ft | |||
| 04-May | 09:30PM | n/a | 140° | 5 kt | Missing | 26° | 78° | 24° | 75° | 89% | 1013 mb | 1,427 ft | |||
| 04-May | 08:30PM | n/a | 130° | 5 kt | Missing | 27° | 80° | 23° | 73° | 79% | 1012 mb | 1,577 ft | |||
| 04-May | 07:30PM | n/a | 110° | 4 kt | Missing | 27° | 80° | 25° | 77° | 89% | 1012 mb | 1,577 ft | |||
| 04-May | 06:30PM | n/a | 80° | 5 kt | Missing | 28° | 82° | 25° | 77° | 84% | 1011 mb | 1,726 ft | |||
| 04-May | 05:30PM | n/a | 90° | 6 kt | Missing | 30° | 86° | 24° | 75° | 70% | 1010 mb | 1,996 ft | |||
| 04-May | 04:30PM | n/a | 90° | 6 kt | Missing | 31° | 87° | 25° | 77° | 71% | 1010 mb | 2,116 ft | |||
| 04-May | 03:30PM | n/a | 90° | 6 kt | Missing | 31° | 87° | 24° | 75° | 66% | 1010 mb | 2,116 ft |
Login
| Your browser is unsupported. upgrade your browser |
